createdAt,value
2022-08-17T00:01:52.031Z,82.77
2022-08-17T00:04:24.184Z,83.32
2022-08-17T00:06:54.188Z,83.24
2022-08-17T00:09:24.225Z,83.29
2022-08-17T00:12:34.686Z,83.30
2022-08-17T00:14:45.812Z,83.49
2022-08-17T00:17:15.955Z,83.46
2022-08-17T00:19:46.045Z,83.67
2022-08-17T00:22:35.150Z,83.79
2022-08-17T00:25:09.219Z,83.48
2022-08-17T00:27:40.767Z,84.13
2022-08-17T00:30:14.743Z,83.74
2022-08-17T00:33:12.681Z,83.63
2022-08-17T00:35:38.587Z,83.49
2022-08-17T00:38:10.231Z,83.30
2022-08-17T00:40:44.951Z,83.70
2022-08-17T00:43:23.863Z,83.80
2022-08-17T00:45:54.064Z,84.25
2022-08-17T00:48:30.456Z,84.14
2022-08-17T00:52:47.053Z,84.63
2022-08-17T00:55:17.662Z,84.35
2022-08-17T00:57:55.037Z,84.31
2022-08-17T01:00:29.028Z,84.37
2022-08-17T01:03:06.702Z,84.22
2022-08-17T01:05:42.237Z,84.70
2022-08-17T01:08:17.331Z,84.79
2022-08-17T01:10:59.456Z,84.64
2022-08-17T01:13:39.731Z,84.51
2022-08-17T01:16:20.175Z,84.52
2022-08-17T01:18:54.022Z,84.58
2022-08-17T01:21:34.357Z,84.17
2022-08-17T01:24:06.945Z,84.37
2022-08-17T01:26:38.305Z,84.57
2022-08-17T01:29:09.227Z,84.76
2022-08-17T01:31:43.483Z,85.25
2022-08-17T01:34:16.724Z,84.86
2022-08-17T01:36:50.159Z,85.27
2022-08-17T01:39:28.903Z,84.93
2022-08-17T01:42:08.884Z,85.01
2022-08-17T01:44:40.887Z,85.20
2022-08-17T01:47:11.153Z,84.94
2022-08-17T01:49:41.222Z,84.96
2022-08-17T01:52:13.706Z,84.96
2022-08-17T01:54:49.683Z,84.78
2022-08-17T01:57:20.042Z,84.56
2022-08-17T01:59:50.256Z,84.49
2022-08-17T02:02:30.989Z,84.69
2022-08-17T02:05:02.386Z,85.12
2022-08-17T02:07:32.388Z,85.23
2022-08-17T02:10:24.435Z,85.17
2022-08-17T02:13:05.664Z,85.58
2022-08-17T02:15:36.326Z,85.52
2022-08-17T02:18:08.217Z,85.55
2022-08-17T02:20:42.502Z,85.87
2022-08-17T02:23:14.457Z,86.04
2022-08-17T02:25:49.461Z,86.19
2022-08-17T02:28:20.522Z,86.57
2022-08-17T02:31:01.844Z,86.78
2022-08-17T02:33:41.709Z,86.69
2022-08-17T02:36:14.962Z,86.87
2022-08-17T02:38:45.022Z,87.16
2022-08-17T02:41:17.013Z,87.13
2022-08-17T02:43:47.149Z,86.79
2022-08-17T02:46:17.145Z,87.26
2022-08-17T02:48:47.142Z,86.61
2022-08-17T02:51:17.539Z,86.34
2022-08-17T02:53:48.286Z,86.95
2022-08-17T02:56:19.985Z,86.92
2022-08-17T02:58:50.141Z,87.11
2022-08-17T03:01:20.711Z,87.63
2022-08-17T03:03:50.706Z,87.28
2022-08-17T03:06:20.822Z,87.33
2022-08-17T03:08:50.973Z,87.28
2022-08-17T03:11:22.688Z,86.75
2022-08-17T03:13:52.786Z,86.22
2022-08-17T03:16:23.646Z,86.58
2022-08-17T03:18:55.162Z,87.06
2022-08-17T03:21:25.206Z,86.75
2022-08-17T03:23:55.489Z,87.30
2022-08-17T03:26:29.801Z,87.27
2022-08-17T03:28:59.962Z,87.45
2022-08-17T03:31:29.993Z,86.91
2022-08-17T03:34:01.445Z,87.37
2022-08-17T03:36:31.503Z,87.69
2022-08-17T03:39:06.902Z,88.50
2022-08-17T03:41:39.484Z,88.82
2022-08-17T03:44:09.462Z,90.21
2022-08-17T03:46:56.581Z,89.63
2022-08-17T03:49:43.401Z,90.01
2022-08-17T03:54:12.728Z,91.58
2022-08-17T03:56:46.026Z,92.79
2022-08-17T03:59:22.397Z,93.38
2022-08-17T04:01:55.637Z,92.38
2022-08-17T04:04:27.599Z,92.66
2022-08-17T04:06:59.147Z,92.21
2022-08-17T04:09:30.725Z,92.45
2022-08-17T04:12:01.298Z,91.77
2022-08-17T04:14:52.243Z,92.65
2022-08-17T04:17:27.374Z,93.00
2022-08-17T04:19:58.421Z,92.75
2022-08-17T04:22:32.205Z,92.62
2022-08-17T04:25:09.395Z,92.76
2022-08-17T04:27:39.595Z,93.63
2022-08-17T04:30:11.806Z,92.66
2022-08-17T04:33:06.230Z,92.29
2022-08-17T04:35:42.227Z,91.56
2022-08-17T04:38:15.703Z,90.98
2022-08-17T04:41:05.163Z,90.44
2022-08-17T04:43:37.450Z,90.13
2022-08-17T04:46:10.692Z,89.80
2022-08-17T04:48:43.406Z,89.35
2022-08-17T04:51:17.683Z,88.74
2022-08-17T04:53:54.354Z,87.99
2022-08-17T04:56:28.983Z,87.51
2022-08-17T04:59:03.343Z,86.97
2022-08-17T05:01:37.002Z,86.85
2022-08-17T05:04:32.796Z,86.57
2022-08-17T05:07:00.965Z,86.37
2022-08-17T05:09:31.383Z,86.41
2022-08-17T05:12:06.453Z,85.78
2022-08-17T05:14:36.607Z,84.79
2022-08-17T05:17:11.145Z,84.21
2022-08-17T05:19:42.106Z,84.63
2022-08-17T05:22:12.023Z,84.11
2022-08-17T05:24:53.341Z,84.93
2022-08-17T05:27:25.449Z,83.58
2022-08-17T05:30:02.963Z,83.85
2022-08-17T05:32:38.257Z,84.06
2022-08-17T05:35:11.414Z,83.50
2022-08-17T05:37:41.446Z,82.98
2022-08-17T05:40:12.845Z,82.84
2022-08-17T05:42:44.782Z,81.19
2022-08-17T05:45:16.113Z,80.74
2022-08-17T05:47:58.241Z,80.59
2022-08-17T05:50:36.053Z,80.17
2022-08-17T05:53:15.043Z,79.65
2022-08-17T05:56:00.403Z,78.40
2022-08-17T05:58:49.255Z,76.90
2022-08-17T06:01:32.444Z,75.83
2022-08-17T06:04:17.730Z,75.50
2022-08-17T06:06:57.127Z,74.60
2022-08-17T06:09:41.758Z,72.11
2022-08-17T06:12:36.286Z,71.44
2022-08-17T06:15:25.406Z,71.21
2022-08-17T06:17:59.543Z,70.78
2022-08-17T06:20:37.847Z,70.47
2022-08-17T06:23:13.066Z,69.29
2022-08-17T06:25:51.907Z,63.99
2022-08-17T06:28:32.447Z,63.07
2022-08-17T06:31:10.767Z,60.28
2022-08-17T06:33:46.723Z,59.10
2022-08-17T06:36:37.287Z,58.11
2022-08-17T06:39:29.160Z,57.87
2022-08-17T06:43:02.358Z,56.62
2022-08-17T06:45:14.083Z,54.01
2022-08-17T06:47:55.227Z,56.13
2022-08-17T06:53:46.769Z,51.58
2022-08-17T06:56:27.307Z,54.16
2022-08-17T06:59:23.634Z,54.18
2022-08-17T07:01:56.827Z,51.91
2022-08-17T07:04:33.082Z,53.62
2022-08-17T07:07:22.927Z,52.29
2022-08-17T07:09:58.287Z,50.41
2022-08-17T07:12:34.483Z,49.79
2022-08-17T07:15:15.226Z,51.75
2022-08-17T07:17:48.455Z,51.92
2022-08-17T07:20:23.002Z,53.04
2022-08-17T07:23:01.025Z,50.96
2022-08-17T07:25:33.466Z,50.15
2022-08-17T07:28:08.169Z,50.49
2022-08-17T07:30:47.147Z,48.94
2022-08-17T07:33:24.444Z,48.73
2022-08-17T07:35:55.108Z,49.45
2022-08-17T07:38:28.656Z,47.08
2022-08-17T07:41:11.131Z,47.97
2022-08-17T07:43:52.674Z,46.16
2022-08-17T07:46:42.215Z,45.30
2022-08-17T07:49:38.544Z,47.04
2022-08-17T07:52:48.574Z,46.05
2022-08-17T07:55:03.386Z,46.06
2022-08-17T07:57:37.707Z,44.21
2022-08-17T08:00:31.848Z,44.63
2022-08-17T08:03:19.347Z,43.54
2022-08-17T08:05:56.702Z,45.94
2022-08-17T08:08:40.065Z,45.83
2022-08-17T08:11:15.796Z,45.11
2022-08-17T08:13:50.351Z,43.59
2022-08-17T08:16:29.894Z,44.64
2022-08-17T08:19:02.541Z,42.91
2022-08-17T08:21:46.823Z,42.72
2022-08-17T08:24:41.638Z,42.57
2022-08-17T08:27:34.725Z,42.53
2022-08-17T08:30:12.128Z,44.94
2022-08-17T08:33:24.274Z,43.30
2022-08-17T08:36:03.066Z,44.71
2022-08-17T08:38:50.985Z,42.59
2022-08-17T08:41:45.285Z,41.13
2022-08-17T08:45:01.340Z,45.07
2022-08-17T08:47:43.047Z,43.50
2022-08-17T08:50:37.666Z,42.68
2022-08-17T08:53:31.368Z,42.46
2022-08-17T08:56:06.696Z,40.88
2022-08-17T08:58:51.231Z,42.32
2022-08-17T09:01:30.050Z,41.39
2022-08-17T09:04:25.990Z,40.58
2022-08-17T09:07:09.696Z,40.53
2022-08-17T09:09:59.155Z,39.08
2022-08-17T09:12:42.561Z,38.58
2022-08-17T09:15:20.346Z,37.58
2022-08-17T09:18:36.456Z,40.38
2022-08-17T09:20:59.906Z,39.13
2022-08-17T09:23:36.707Z,38.83
2022-08-17T09:26:22.437Z,39.40
2022-08-17T09:29:01.758Z,39.87
2022-08-17T09:31:46.451Z,38.29
2022-08-17T09:34:33.103Z,39.45
2022-08-17T09:37:22.083Z,42.24
2022-08-17T09:40:08.241Z,41.16
2022-08-17T09:42:48.961Z,38.90
2022-08-17T09:45:34.047Z,40.51
2022-08-17T09:48:10.427Z,41.66
2022-08-17T09:53:44.561Z,42.55
2022-08-17T09:56:34.983Z,43.53
2022-08-17T09:59:45.193Z,44.59
2022-08-17T10:02:58.317Z,42.71
2022-08-17T10:05:37.986Z,41.50
2022-08-17T10:08:21.842Z,41.01
2022-08-17T10:11:18.844Z,42.27
2022-08-17T10:13:59.700Z,43.53
2022-08-17T10:16:40.271Z,43.24
2022-08-17T10:19:20.425Z,44.00
2022-08-17T10:22:32.759Z,42.67
2022-08-17T10:25:30.188Z,43.66
2022-08-17T10:28:22.825Z,42.60
2022-08-17T10:34:07.619Z,44.15
2022-08-17T10:36:49.497Z,44.06
2022-08-17T10:39:28.014Z,41.55
2022-08-17T10:42:05.471Z,43.35
2022-08-17T10:44:52.606Z,43.86
2022-08-17T10:47:24.401Z,44.60
2022-08-17T10:49:56.383Z,44.88
2022-08-17T10:52:51.426Z,45.14
2022-08-17T10:55:22.726Z,44.94
2022-08-17T10:57:55.227Z,43.22
2022-08-17T11:01:04.355Z,42.07
2022-08-17T11:03:34.614Z,39.32
2022-08-17T11:06:19.323Z,39.69
2022-08-17T11:09:27.967Z,40.37
2022-08-17T11:12:26.047Z,38.93
2022-08-17T11:15:13.269Z,39.09
2022-08-17T11:18:23.826Z,39.88
2022-08-17T11:21:38.043Z,36.65
2022-08-17T11:24:24.545Z,38.75
2022-08-17T11:27:14.225Z,39.83
2022-08-17T11:30:00.837Z,40.60
2022-08-17T11:32:47.450Z,41.54
2022-08-17T11:35:41.011Z,41.45
2022-08-17T11:38:27.228Z,46.29
2022-08-17T11:41:16.710Z,48.25
2022-08-17T11:44:12.822Z,51.44
2022-08-17T11:47:18.444Z,56.03
2022-08-17T11:50:37.702Z,59.31
2022-08-17T11:53:10.165Z,60.07
2022-08-17T11:56:08.386Z,59.38
2022-08-17T11:58:42.608Z,59.89
2022-08-17T12:01:16.177Z,60.18
2022-08-17T12:03:55.963Z,58.71
2022-08-17T12:06:47.826Z,57.81
2022-08-17T12:09:25.294Z,58.50
2022-08-17T12:12:12.656Z,56.79
2022-08-17T12:15:10.102Z,56.72
2022-08-17T12:17:42.881Z,58.11
2022-08-17T12:20:21.926Z,52.60
2022-08-17T12:23:01.509Z,50.15
2022-08-17T12:25:42.585Z,47.80
2022-08-17T12:28:25.623Z,50.23
2022-08-17T12:30:56.566Z,47.26
2022-08-17T12:33:29.163Z,47.20
2022-08-17T12:36:04.544Z,50.84
2022-08-17T12:38:37.084Z,48.23
2022-08-17T12:41:29.905Z,48.06
2022-08-17T12:44:03.324Z,45.81
2022-08-17T12:46:38.320Z,45.82
2022-08-17T12:49:24.314Z,43.88
2022-08-17T12:53:42.870Z,44.60
2022-08-17T12:56:16.205Z,44.11
2022-08-17T12:58:53.821Z,43.63
2022-08-17T13:01:25.415Z,43.79
2022-08-17T13:04:01.370Z,44.38
2022-08-17T13:06:35.413Z,43.66
2022-08-17T13:09:16.744Z,42.27
2022-08-17T13:11:52.041Z,42.96
2022-08-17T13:14:22.645Z,44.51
2022-08-17T13:16:58.581Z,44.05
2022-08-17T13:19:40.424Z,44.73
2022-08-17T13:22:15.204Z,45.21
2022-08-17T13:24:56.726Z,47.33
2022-08-17T13:27:29.756Z,48.59
2022-08-17T13:30:02.507Z,48.00
2022-08-17T13:32:43.884Z,48.89
2022-08-17T13:35:50.089Z,49.16
2022-08-17T13:38:41.446Z,49.46
2022-08-17T13:41:35.004Z,49.25
2022-08-17T13:44:15.372Z,49.40
2022-08-17T13:46:57.163Z,49.51
2022-08-17T13:49:41.968Z,49.13
2022-08-17T13:52:39.786Z,48.92
2022-08-17T13:55:19.883Z,49.36
2022-08-17T13:58:03.967Z,49.12
2022-08-17T14:00:39.686Z,49.09
2022-08-17T14:03:09.723Z,48.09
2022-08-17T14:05:42.162Z,48.42
2022-08-17T14:08:15.062Z,46.42
2022-08-17T14:10:45.403Z,46.72
2022-08-17T14:13:16.992Z,46.02
2022-08-17T14:15:54.562Z,45.57
2022-08-17T14:18:35.627Z,46.26
2022-08-17T14:21:17.787Z,46.26
2022-08-17T14:23:49.016Z,46.52
2022-08-17T14:26:25.037Z,46.27
2022-08-17T14:28:57.119Z,46.58
2022-08-17T14:31:28.381Z,45.70
2022-08-17T14:33:59.383Z,46.91
2022-08-17T14:36:29.522Z,48.73
2022-08-17T14:38:59.744Z,48.27
2022-08-17T14:41:29.725Z,46.47
2022-08-17T14:44:01.434Z,49.28
2022-08-17T14:46:31.627Z,51.21
2022-08-17T14:49:03.204Z,51.47
2022-08-17T14:51:33.283Z,51.27
2022-08-17T14:54:03.411Z,52.21
2022-08-17T14:56:37.873Z,51.10
2022-08-17T14:59:09.927Z,51.01
2022-08-17T15:01:40.197Z,52.62
2022-08-17T15:04:18.628Z,53.33
2022-08-17T15:06:49.386Z,52.73
2022-08-17T15:09:19.962Z,52.30
2022-08-17T15:11:50.110Z,51.90
2022-08-17T15:14:23.026Z,49.79
2022-08-17T15:16:53.093Z,49.33
2022-08-17T15:19:23.243Z,49.66
2022-08-17T15:21:53.322Z,50.26
2022-08-17T15:24:23.526Z,51.40
2022-08-17T15:26:53.423Z,51.09
2022-08-17T15:29:25.207Z,50.75
2022-08-17T15:32:00.039Z,50.87
2022-08-17T15:34:30.754Z,51.23
2022-08-17T15:37:00.845Z,51.27
2022-08-17T15:39:31.120Z,51.92
2022-08-17T15:42:05.726Z,50.73
2022-08-17T15:44:43.714Z,50.30
2022-08-17T15:47:17.373Z,49.43
2022-08-17T15:49:48.621Z,46.45
2022-08-17T15:53:41.084Z,48.72
2022-08-17T15:56:15.703Z,48.77
2022-08-17T15:58:48.323Z,47.92
2022-08-17T16:02:16.308Z,48.86
2022-08-17T16:04:29.969Z,47.28
2022-08-17T16:07:02.014Z,48.87
2022-08-17T16:09:33.624Z,49.36
2022-08-17T16:12:13.324Z,49.43
2022-08-17T16:14:43.366Z,51.12
2022-08-17T16:17:38.579Z,51.38
2022-08-17T16:20:03.712Z,50.27
2022-08-17T16:22:37.986Z,49.28
2022-08-17T16:25:15.423Z,48.68
2022-08-17T16:27:46.332Z,48.63
2022-08-17T16:30:18.100Z,50.06
2022-08-17T16:32:51.945Z,49.24
2022-08-17T16:35:25.606Z,50.21
2022-08-17T16:37:57.526Z,51.40
2022-08-17T16:40:35.798Z,49.51
2022-08-17T16:43:12.346Z,54.04
2022-08-17T16:45:42.843Z,52.25
2022-08-17T16:48:12.882Z,54.31
2022-08-17T16:50:43.747Z,54.22
2022-08-17T16:53:34.267Z,53.98
2022-08-17T16:56:07.827Z,57.13
2022-08-17T16:58:41.268Z,55.95
2022-08-17T17:01:12.055Z,57.07
2022-08-17T17:03:46.592Z,58.82
2022-08-17T17:06:26.666Z,59.06
2022-08-17T17:09:02.886Z,58.52
2022-08-17T17:11:40.107Z,59.73
2022-08-17T17:14:16.606Z,59.84
2022-08-17T17:16:58.169Z,61.57
2022-08-17T17:19:36.402Z,60.35
2022-08-17T17:22:16.980Z,61.18
2022-08-17T17:25:00.603Z,63.74
2022-08-17T17:27:44.421Z,63.96
2022-08-17T17:30:31.985Z,64.77
2022-08-17T17:33:07.211Z,64.33
2022-08-17T17:35:50.147Z,64.64
2022-08-17T17:38:28.956Z,64.21
2022-08-17T17:41:06.104Z,66.44
2022-08-17T17:43:40.182Z,67.14
2022-08-17T17:46:27.742Z,67.01
2022-08-17T17:48:59.882Z,66.77
2022-08-17T17:52:06.590Z,67.96
2022-08-17T17:54:58.982Z,68.71
2022-08-17T17:57:47.182Z,68.96
2022-08-17T18:00:27.364Z,69.36
2022-08-17T18:03:15.515Z,69.50
2022-08-17T18:06:10.430Z,70.37
2022-08-17T18:08:58.535Z,70.82
2022-08-17T18:11:53.443Z,71.69
2022-08-17T18:14:48.268Z,71.28
2022-08-17T18:17:20.709Z,72.45
2022-08-17T18:19:50.931Z,72.07
2022-08-17T18:22:23.668Z,72.26
2022-08-17T18:24:57.708Z,72.24
2022-08-17T18:27:35.499Z,71.68
2022-08-17T18:30:29.267Z,73.22
2022-08-17T18:33:23.585Z,73.15
2022-08-17T18:35:58.710Z,74.13
2022-08-17T18:38:34.571Z,73.36
2022-08-17T18:41:19.271Z,73.18
2022-08-17T18:44:04.521Z,72.79
2022-08-17T18:46:37.969Z,73.13
2022-08-17T18:49:28.303Z,72.87
2022-08-17T18:53:42.542Z,73.47
2022-08-17T18:56:31.259Z,73.05
2022-08-17T18:59:34.002Z,72.94
2022-08-17T19:02:44.268Z,73.15
2022-08-17T19:05:29.532Z,72.96
2022-08-17T19:08:23.788Z,73.51
2022-08-17T19:10:59.646Z,73.66
2022-08-17T19:13:36.644Z,73.37
2022-08-17T19:16:14.764Z,73.47
2022-08-17T19:18:51.245Z,73.48
2022-08-17T19:21:25.964Z,73.53
2022-08-17T19:24:02.633Z,73.61
2022-08-17T19:26:51.068Z,74.00
2022-08-17T19:29:34.323Z,74.15
2022-08-17T19:32:05.383Z,74.73
2022-08-17T19:34:39.209Z,74.80
2022-08-17T19:37:18.710Z,74.98
2022-08-17T19:40:00.632Z,75.26
2022-08-17T19:42:47.954Z,75.47
2022-08-17T19:45:36.575Z,75.19
2022-08-17T19:48:20.762Z,76.03
2022-08-17T19:50:58.611Z,75.75
2022-08-17T19:54:03.812Z,75.63
2022-08-17T19:56:40.324Z,76.27
2022-08-17T19:59:21.628Z,75.98
2022-08-17T20:01:58.595Z,76.46
2022-08-17T20:04:40.828Z,76.62
2022-08-17T20:07:25.783Z,76.79
2022-08-17T20:10:05.854Z,77.17
2022-08-17T20:12:40.437Z,77.50
2022-08-17T20:15:16.613Z,77.37
2022-08-17T20:17:49.255Z,77.10
2022-08-17T20:20:30.988Z,77.24
2022-08-17T20:23:08.908Z,77.59
2022-08-17T20:25:48.561Z,77.89
2022-08-17T20:28:26.331Z,78.22
2022-08-17T20:30:58.407Z,78.45
2022-08-17T20:33:34.205Z,78.39
2022-08-17T20:36:18.699Z,78.68
2022-08-17T20:38:54.818Z,78.63
2022-08-17T20:41:27.796Z,78.67
2022-08-17T20:44:08.445Z,78.80
2022-08-17T20:47:11.973Z,79.03
2022-08-17T20:49:54.558Z,78.87
2022-08-17T20:52:52.842Z,79.06
2022-08-17T20:55:56.186Z,78.82
2022-08-17T20:58:59.341Z,79.08
2022-08-17T21:01:40.723Z,80.52
2022-08-17T21:05:00.642Z,80.21
2022-08-17T21:07:46.606Z,80.13
2022-08-17T21:10:19.816Z,79.82
2022-08-17T21:12:57.543Z,79.71
2022-08-17T21:15:41.465Z,80.46
2022-08-17T21:18:20.042Z,79.89
2022-08-17T21:21:17.446Z,79.72
2022-08-17T21:24:17.435Z,79.74
2022-08-17T21:26:59.072Z,79.88
2022-08-17T21:29:34.063Z,80.59
2022-08-17T21:32:24.179Z,80.60
2022-08-17T21:35:31.405Z,80.11
2022-08-17T21:38:19.789Z,80.16
2022-08-17T21:40:53.506Z,80.14
2022-08-17T21:43:29.703Z,80.04
2022-08-17T21:46:08.192Z,80.27
2022-08-17T21:48:49.895Z,80.50
2022-08-17T21:53:48.326Z,80.40
2022-08-17T21:56:27.734Z,80.49
2022-08-17T21:59:02.109Z,80.47
2022-08-17T22:01:35.990Z,80.57
2022-08-17T22:04:28.027Z,80.68
2022-08-17T22:06:59.061Z,81.02
2022-08-17T22:09:34.362Z,80.73
2022-08-17T22:12:11.698Z,80.92
2022-08-17T22:14:52.506Z,81.12
2022-08-17T22:17:27.568Z,81.48
2022-08-17T22:20:01.086Z,81.32
2022-08-17T22:22:57.064Z,81.06
2022-08-17T22:25:31.512Z,81.32
2022-08-17T22:28:04.486Z,81.69
2022-08-17T22:30:38.407Z,81.55
2022-08-17T22:33:39.973Z,81.67
2022-08-17T22:36:32.978Z,81.56
2022-08-17T22:39:26.469Z,81.98
2022-08-17T22:42:01.358Z,82.86
2022-08-17T22:44:35.968Z,84.09
2022-08-17T22:47:23.223Z,83.18
2022-08-17T22:49:56.804Z,83.13
2022-08-17T22:52:35.463Z,83.50
2022-08-17T22:55:31.423Z,82.88
2022-08-17T22:58:21.243Z,83.28
2022-08-17T23:00:52.429Z,83.99
2022-08-17T23:03:25.050Z,84.57
2022-08-17T23:06:08.350Z,84.41
2022-08-17T23:08:50.196Z,85.37
2022-08-17T23:11:20.345Z,85.29
2022-08-17T23:14:08.668Z,86.04
2022-08-17T23:16:42.724Z,85.62
2022-08-17T23:19:13.911Z,85.21
2022-08-17T23:21:45.427Z,85.40
2022-08-17T23:24:22.026Z,84.72
2022-08-17T23:26:52.075Z,84.88
2022-08-17T23:29:24.208Z,84.90
2022-08-17T23:31:58.087Z,84.60
2022-08-17T23:34:28.553Z,84.77
2022-08-17T23:36:58.789Z,84.98
2022-08-17T23:39:28.998Z,84.54
2022-08-17T23:42:00.208Z,84.98
2022-08-17T23:44:32.980Z,84.77
2022-08-17T23:47:03.992Z,85.20
2022-08-17T23:49:34.488Z,85.52
2022-08-17T23:52:10.266Z,85.66
2022-08-17T23:54:44.672Z,85.74
2022-08-17T23:57:17.746Z,85.54
2022-08-17T23:59:49.408Z,85.69
